sensor_id;sensor_type;location;lat;lon;timestamp;P1;durP1;ratioP1;P2;durP2;ratioP2
42186;SDS011;27858;51.414;0.018;2023-04-07T04:01:43;7.78;;;2.17;;
42186;SDS011;27858;51.414;0.018;2023-04-07T04:04:09;7.47;;;1.98;;
42186;SDS011;27858;51.414;0.018;2023-04-07T04:06:36;3.00;;;1.80;;
42186;SDS011;27858;51.414;0.018;2023-04-07T04:09:03;2.65;;;1.25;;
42186;SDS011;27858;51.414;0.018;2023-04-07T04:11:30;7.85;;;3.13;;
42186;SDS011;27858;51.414;0.018;2023-04-07T04:13:57;6.50;;;2.80;;
42186;SDS011;27858;51.414;0.018;2023-04-07T04:16:24;6.68;;;1.40;;
42186;SDS011;27858;51.414;0.018;2023-04-07T04:18:51;9.90;;;1.77;;
42186;SDS011;27858;51.414;0.018;2023-04-07T04:21:17;3.28;;;1.80;;
42186;SDS011;27858;51.414;0.018;2023-04-07T04:23:44;2.78;;;1.88;;
42186;SDS011;27858;51.414;0.018;2023-04-07T04:26:11;4.15;;;1.50;;
42186;SDS011;27858;51.414;0.018;2023-04-07T04:28:38;6.30;;;1.70;;
42186;SDS011;27858;51.414;0.018;2023-04-07T04:31:04;4.47;;;1.60;;
42186;SDS011;27858;51.414;0.018;2023-04-07T04:33:32;3.28;;;1.15;;
42186;SDS011;27858;51.414;0.018;2023-04-07T04:35:58;4.13;;;1.50;;
42186;SDS011;27858;51.414;0.018;2023-04-07T04:38:25;4.88;;;1.10;;
42186;SDS011;27858;51.414;0.018;2023-04-07T04:40:52;4.47;;;1.98;;
42186;SDS011;27858;51.414;0.018;2023-04-07T04:43:19;23.42;;;2.70;;
42186;SDS011;27858;51.414;0.018;2023-04-07T04:45:46;5.45;;;1.30;;
42186;SDS011;27858;51.414;0.018;2023-04-07T04:48:13;4.53;;;1.70;;
42186;SDS011;27858;51.414;0.018;2023-04-07T04:50:40;7.28;;;1.77;;
42186;SDS011;27858;51.414;0.018;2023-04-07T04:53:08;5.50;;;1.30;;
42186;SDS011;27858;51.414;0.018;2023-04-07T04:55:35;6.32;;;1.23;;
42186;SDS011;27858;51.414;0.018;2023-04-07T04:58:02;2.78;;;1.27;;
42186;SDS011;27858;51.414;0.018;2023-04-07T05:00:29;3.08;;;1.17;;
42186;SDS011;27858;51.414;0.018;2023-04-07T05:02:56;6.63;;;1.45;;
42186;SDS011;27858;51.414;0.018;2023-04-07T05:05:23;4.22;;;1.50;;
42186;SDS011;27858;51.414;0.018;2023-04-07T05:07:50;12.55;;;1.50;;
42186;SDS011;27858;51.414;0.018;2023-04-07T05:10:16;5.63;;;1.30;;
42186;SDS011;27858;51.414;0.018;2023-04-07T05:12:43;3.17;;;1.05;;
42186;SDS011;27858;51.414;0.018;2023-04-07T05:15:10;5.03;;;1.60;;
42186;SDS011;27858;51.414;0.018;2023-04-07T05:17:37;2.05;;;0.88;;
42186;SDS011;27858;51.414;0.018;2023-04-07T05:20:04;3.30;;;1.75;;
42186;SDS011;27858;51.414;0.018;2023-04-07T05:22:31;5.93;;;1.98;;
42186;SDS011;27858;51.414;0.018;2023-04-07T05:24:58;5.57;;;1.85;;
42186;SDS011;27858;51.414;0.018;2023-04-07T05:27:25;2.00;;;1.30;;
42186;SDS011;27858;51.414;0.018;2023-04-07T05:29:52;3.72;;;1.17;;
42186;SDS011;27858;51.414;0.018;2023-04-07T05:32:19;4.88;;;1.75;;
42186;SDS011;27858;51.414;0.018;2023-04-07T05:34:46;6.93;;;1.30;;
42186;SDS011;27858;51.414;0.018;2023-04-07T05:37:12;4.35;;;1.90;;
42186;SDS011;27858;51.414;0.018;2023-04-07T05:39:39;6.90;;;1.60;;
42186;SDS011;27858;51.414;0.018;2023-04-07T05:42:06;6.72;;;1.65;;
42186;SDS011;27858;51.414;0.018;2023-04-07T05:44:33;2.80;;;1.30;;
42186;SDS011;27858;51.414;0.018;2023-04-07T05:46:59;7.78;;;1.67;;
42186;SDS011;27858;51.414;0.018;2023-04-07T05:49:26;4.18;;;1.75;;
42186;SDS011;27858;51.414;0.018;2023-04-07T05:51:53;4.75;;;1.73;;
42186;SDS011;27858;51.414;0.018;2023-04-07T05:54:20;2.28;;;1.35;;
42186;SDS011;27858;51.414;0.018;2023-04-07T05:56:46;4.80;;;1.98;;
42186;SDS011;27858;51.414;0.018;2023-04-07T05:59:13;7.50;;;2.05;;
42186;SDS011;27858;51.414;0.018;2023-04-07T06:01:41;3.78;;;1.25;;
42186;SDS011;27858;51.414;0.018;2023-04-07T06:04:08;7.25;;;1.95;;
42186;SDS011;27858;51.414;0.018;2023-04-07T06:06:34;4.43;;;1.42;;
42186;SDS011;27858;51.414;0.018;2023-04-07T06:09:01;6.47;;;2.17;;
42186;SDS011;27858;51.414;0.018;2023-04-07T06:11:28;4.35;;;2.00;;
42186;SDS011;27858;51.414;0.018;2023-04-07T06:13:55;5.13;;;1.60;;
42186;SDS011;27858;51.414;0.018;2023-04-07T06:16:22;5.97;;;1.63;;
42186;SDS011;27858;51.414;0.018;2023-04-07T06:18:48;4.65;;;1.85;;
42186;SDS011;27858;51.414;0.018;2023-04-07T06:21:15;5.60;;;2.00;;
42186;SDS011;27858;51.414;0.018;2023-04-07T06:23:42;9.07;;;2.58;;
42186;SDS011;27858;51.414;0.018;2023-04-07T06:26:09;7.88;;;1.52;;
42186;SDS011;27858;51.414;0.018;2023-04-07T06:28:37;7.50;;;2.70;;
42186;SDS011;27858;51.414;0.018;2023-04-07T06:31:05;8.93;;;3.17;;
42186;SDS011;27858;51.414;0.018;2023-04-07T06:33:33;4.00;;;2.03;;
42186;SDS011;27858;51.414;0.018;2023-04-07T06:36:00;12.57;;;3.70;;
42186;SDS011;27858;51.414;0.018;2023-04-07T06:38:27;4.68;;;1.85;;
42186;SDS011;27858;51.414;0.018;2023-04-07T06:40:54;7.18;;;1.77;;
42186;SDS011;27858;51.414;0.018;2023-04-07T06:43:21;10.07;;;3.13;;
42186;SDS011;27858;51.414;0.018;2023-04-07T06:45:47;5.53;;;2.03;;
42186;SDS011;27858;51.414;0.018;2023-04-07T06:48:14;5.95;;;1.77;;
42186;SDS011;27858;51.414;0.018;2023-04-07T06:50:44;2.28;;;1.40;;
42186;SDS011;27858;51.414;0.018;2023-04-07T06:53:12;5.95;;;2.67;;
42186;SDS011;27858;51.414;0.018;2023-04-07T06:55:39;5.15;;;1.75;;
42186;SDS011;27858;51.414;0.018;2023-04-07T06:58:06;8.40;;;2.58;;
42186;SDS011;27858;51.414;0.018;2023-04-07T07:00:34;7.00;;;2.10;;
42186;SDS011;27858;51.414;0.018;2023-04-07T07:03:01;5.30;;;2.00;;
42186;SDS011;27858;51.414;0.018;2023-04-07T07:05:28;7.95;;;2.00;;
42186;SDS011;27858;51.414;0.018;2023-04-07T07:07:55;10.38;;;2.28;;
42186;SDS011;27858;51.414;0.018;2023-04-07T07:10:22;4.43;;;1.92;;
42186;SDS011;27858;51.414;0.018;2023-04-07T07:12:49;8.90;;;2.70;;
42186;SDS011;27858;51.414;0.018;2023-04-07T07:15:16;4.22;;;1.77;;
42186;SDS011;27858;51.414;0.018;2023-04-07T07:17:43;6.53;;;2.47;;
42186;SDS011;27858;51.414;0.018;2023-04-07T07:20:10;4.57;;;2.30;;
42186;SDS011;27858;51.414;0.018;2023-04-07T07:22:37;5.45;;;2.40;;
42186;SDS011;27858;51.414;0.018;2023-04-07T07:25:04;2.90;;;1.40;;
42186;SDS011;27858;51.414;0.018;2023-04-07T07:27:31;5.75;;;1.85;;
42186;SDS011;27858;51.414;0.018;2023-04-07T07:29:58;5.70;;;2.70;;
42186;SDS011;27858;51.414;0.018;2023-04-07T07:32:25;3.95;;;1.60;;
42186;SDS011;27858;51.414;0.018;2023-04-07T07:34:52;5.25;;;1.90;;
42186;SDS011;27858;51.414;0.018;2023-04-07T07:37:19;5.70;;;2.38;;
42186;SDS011;27858;51.414;0.018;2023-04-07T07:39:45;5.32;;;1.58;;
42186;SDS011;27858;51.414;0.018;2023-04-07T07:42:12;17.08;;;2.90;;
42186;SDS011;27858;51.414;0.018;2023-04-07T07:44:40;5.35;;;2.15;;
42186;SDS011;27858;51.414;0.018;2023-04-07T07:47:06;8.68;;;2.20;;
42186;SDS011;27858;51.414;0.018;2023-04-07T07:49:33;8.13;;;3.00;;
42186;SDS011;27858;51.414;0.018;2023-04-07T07:52:00;11.88;;;3.80;;
42186;SDS011;27858;51.414;0.018;2023-04-07T07:54:27;7.53;;;2.10;;
42186;SDS011;27858;51.414;0.018;2023-04-07T07:56:54;6.95;;;2.30;;
42186;SDS011;27858;51.414;0.018;2023-04-07T07:59:21;6.43;;;3.15;;
42186;SDS011;27858;51.414;0.018;2023-04-07T08:01:48;4.45;;;1.83;;
42186;SDS011;27858;51.414;0.018;2023-04-07T08:04:15;3.10;;;1.30;;
42186;SDS011;27858;51.414;0.018;2023-04-07T08:06:41;5.28;;;2.42;;
42186;SDS011;27858;51.414;0.018;2023-04-07T08:09:11;7.70;;;1.85;;
42186;SDS011;27858;51.414;0.018;2023-04-07T08:11:37;6.90;;;2.60;;
42186;SDS011;27858;51.414;0.018;2023-04-07T08:14:04;10.02;;;2.13;;
42186;SDS011;27858;51.414;0.018;2023-04-07T08:16:34;7.32;;;2.88;;
42186;SDS011;27858;51.414;0.018;2023-04-07T08:19:01;5.55;;;2.05;;
42186;SDS011;27858;51.414;0.018;2023-04-07T08:21:28;8.07;;;2.42;;
42186;SDS011;27858;51.414;0.018;2023-04-07T08:23:54;9.63;;;3.10;;
42186;SDS011;27858;51.414;0.018;2023-04-07T08:26:21;7.28;;;2.33;;
42186;SDS011;27858;51.414;0.018;2023-04-07T08:28:48;12.32;;;3.58;;
42186;SDS011;27858;51.414;0.018;2023-04-07T08:31:18;5.40;;;1.90;;
42186;SDS011;27858;51.414;0.018;2023-04-07T08:33:45;3.63;;;1.58;;
42186;SDS011;27858;51.414;0.018;2023-04-07T08:36:12;8.65;;;2.63;;
42186;SDS011;27858;51.414;0.018;2023-04-07T08:38:39;6.28;;;2.33;;
42186;SDS011;27858;51.414;0.018;2023-04-07T08:41:10;2.15;;;1.10;;
42186;SDS011;27858;51.414;0.018;2023-04-07T08:43:38;6.50;;;1.60;;
42186;SDS011;27858;51.414;0.018;2023-04-07T08:46:06;3.90;;;1.80;;
42186;SDS011;27858;51.414;0.018;2023-04-07T08:48:35;6.75;;;2.58;;
42186;SDS011;27858;51.414;0.018;2023-04-07T08:51:04;7.38;;;2.25;;
42186;SDS011;27858;51.414;0.018;2023-04-07T08:53:47;11.15;;;2.38;;
42186;SDS011;27858;51.414;0.018;2023-04-07T08:56:18;6.35;;;1.77;;
42186;SDS011;27858;51.414;0.018;2023-04-07T08:58:47;9.00;;;2.80;;
42186;SDS011;27858;51.414;0.018;2023-04-07T09:01:14;5.30;;;1.52;;
42186;SDS011;27858;51.414;0.018;2023-04-07T09:03:41;4.85;;;1.98;;
42186;SDS011;27858;51.414;0.018;2023-04-07T09:06:10;5.22;;;1.90;;
42186;SDS011;27858;51.414;0.018;2023-04-07T09:08:37;3.58;;;2.05;;
42186;SDS011;27858;51.414;0.018;2023-04-07T09:11:04;4.53;;;1.77;;
42186;SDS011;27858;51.414;0.018;2023-04-07T09:13:30;3.30;;;1.58;;
42186;SDS011;27858;51.414;0.018;2023-04-07T09:15:59;3.60;;;1.33;;
42186;SDS011;27858;51.414;0.018;2023-04-07T09:18:28;8.77;;;2.00;;
42186;SDS011;27858;51.414;0.018;2023-04-07T09:20:59;6.10;;;1.35;;
42186;SDS011;27858;51.414;0.018;2023-04-07T09:23:34;3.38;;;1.90;;
42186;SDS011;27858;51.414;0.018;2023-04-07T09:26:22;8.13;;;2.75;;
42186;SDS011;27858;51.414;0.018;2023-04-07T09:28:52;5.00;;;1.60;;
42186;SDS011;27858;51.414;0.018;2023-04-07T09:31:19;3.78;;;1.42;;
42186;SDS011;27858;51.414;0.018;2023-04-07T09:36:19;7.50;;;1.58;;
42186;SDS011;27858;51.414;0.018;2023-04-07T09:38:45;2.67;;;1.13;;
42186;SDS011;27858;51.414;0.018;2023-04-07T09:41:15;6.13;;;1.92;;
42186;SDS011;27858;51.414;0.018;2023-04-07T09:43:43;4.72;;;1.85;;
42186;SDS011;27858;51.414;0.018;2023-04-07T09:46:15;2.92;;;1.63;;
42186;SDS011;27858;51.414;0.018;2023-04-07T09:48:45;2.58;;;1.25;;
42186;SDS011;27858;51.414;0.018;2023-04-07T09:51:12;5.97;;;2.30;;
42186;SDS011;27858;51.414;0.018;2023-04-07T09:53:41;5.80;;;2.13;;
42186;SDS011;27858;51.414;0.018;2023-04-07T09:56:10;4.70;;;2.00;;
42186;SDS011;27858;51.414;0.018;2023-04-07T09:58:37;2.33;;;1.63;;
42186;SDS011;27858;51.414;0.018;2023-04-07T10:01:06;5.72;;;2.17;;
42186;SDS011;27858;51.414;0.018;2023-04-07T10:03:35;7.05;;;2.85;;
42186;SDS011;27858;51.414;0.018;2023-04-07T10:06:03;1.83;;;1.20;;
42186;SDS011;27858;51.414;0.018;2023-04-07T10:08:34;5.82;;;1.90;;
42186;SDS011;27858;51.414;0.018;2023-04-07T10:11:03;41.10;;;3.33;;
42186;SDS011;27858;51.414;0.018;2023-04-07T10:13:34;3.20;;;1.83;;
42186;SDS011;27858;51.414;0.018;2023-04-07T10:16:02;4.15;;;1.50;;
42186;SDS011;27858;51.414;0.018;2023-04-07T10:18:31;4.75;;;2.28;;
42186;SDS011;27858;51.414;0.018;2023-04-07T10:21:00;4.68;;;1.00;;
42186;SDS011;27858;51.414;0.018;2023-04-07T10:23:38;1.67;;;1.00;;
42186;SDS011;27858;51.414;0.018;2023-04-07T10:26:15;1.75;;;0.75;;
42186;SDS011;27858;51.414;0.018;2023-04-07T10:28:45;4.03;;;0.98;;
42186;SDS011;27858;51.414;0.018;2023-04-07T10:31:15;1.58;;;0.75;;
42186;SDS011;27858;51.414;0.018;2023-04-07T10:33:47;4.93;;;1.35;;
42186;SDS011;27858;51.414;0.018;2023-04-07T10:36:19;3.88;;;0.70;;
42186;SDS011;27858;51.414;0.018;2023-04-07T10:39:17;1.63;;;0.93;;
42186;SDS011;27858;51.414;0.018;2023-04-07T10:41:37;1.55;;;0.68;;
42186;SDS011;27858;51.414;0.018;2023-04-07T10:44:05;3.50;;;1.05;;
42186;SDS011;27858;51.414;0.018;2023-04-07T10:49:17;0.98;;;0.70;;
42186;SDS011;27858;51.414;0.018;2023-04-07T10:51:44;4.43;;;1.30;;
42186;SDS011;27858;51.414;0.018;2023-04-07T10:54:37;2.08;;;0.80;;
42186;SDS011;27858;51.414;0.018;2023-04-07T10:57:08;2.05;;;0.85;;
42186;SDS011;27858;51.414;0.018;2023-04-07T10:59:37;1.50;;;0.40;;
42186;SDS011;27858;51.414;0.018;2023-04-07T11:04:45;1.08;;;0.60;;
42186;SDS011;27858;51.414;0.018;2023-04-07T11:07:13;1.98;;;0.50;;
42186;SDS011;27858;51.414;0.018;2023-04-07T11:09:41;0.88;;;0.70;;
42186;SDS011;27858;51.414;0.018;2023-04-07T11:12:21;1.35;;;0.55;;
42186;SDS011;27858;51.414;0.018;2023-04-07T11:14:49;1.23;;;0.43;;
42186;SDS011;27858;51.414;0.018;2023-04-07T11:17:15;3.00;;;0.50;;
42186;SDS011;27858;51.414;0.018;2023-04-07T11:19:49;2.38;;;0.40;;
42186;SDS011;27858;51.414;0.018;2023-04-07T11:22:17;1.05;;;0.60;;
42186;SDS011;27858;51.414;0.018;2023-04-07T11:24:47;0.68;;;0.55;;
42186;SDS011;27858;51.414;0.018;2023-04-07T11:27:14;4.00;;;0.50;;
42186;SDS011;27858;51.414;0.018;2023-04-07T11:29:41;3.50;;;1.15;;
42186;SDS011;27858;51.414;0.018;2023-04-07T11:32:09;0.55;;;0.30;;
42186;SDS011;27858;51.414;0.018;2023-04-07T11:34:38;0.98;;;0.40;;
42186;SDS011;27858;51.414;0.018;2023-04-07T11:37:26;1.00;;;0.40;;
42186;SDS011;27858;51.414;0.018;2023-04-07T11:39:54;0.68;;;0.40;;
42186;SDS011;27858;51.414;0.018;2023-04-07T11:42:35;0.98;;;0.60;;
42186;SDS011;27858;51.414;0.018;2023-04-07T11:45:05;0.80;;;0.47;;
42186;SDS011;27858;51.414;0.018;2023-04-07T11:47:41;1.05;;;0.30;;
42186;SDS011;27858;51.414;0.018;2023-04-07T11:50:08;1.63;;;0.45;;
42186;SDS011;27858;51.414;0.018;2023-04-07T11:52:44;0.68;;;0.47;;
42186;SDS011;27858;51.414;0.018;2023-04-07T11:55:21;1.30;;;0.45;;
42186;SDS011;27858;51.414;0.018;2023-04-07T11:57:51;2.03;;;0.60;;
42186;SDS011;27858;51.414;0.018;2023-04-07T12:00:18;0.60;;;0.60;;
42186;SDS011;27858;51.414;0.018;2023-04-07T12:02:46;1.45;;;0.82;;
42186;SDS011;27858;51.414;0.018;2023-04-07T12:05:13;3.38;;;1.15;;
42186;SDS011;27858;51.414;0.018;2023-04-07T12:07:51;1.15;;;0.47;;
42186;SDS011;27858;51.414;0.018;2023-04-07T12:12:46;0.73;;;0.60;;
42186;SDS011;27858;51.414;0.018;2023-04-07T12:15:13;2.15;;;0.80;;
42186;SDS011;27858;51.414;0.018;2023-04-07T12:17:43;2.58;;;0.85;;
42186;SDS011;27858;51.414;0.018;2023-04-07T12:22:40;1.27;;;0.50;;
42186;SDS011;27858;51.414;0.018;2023-04-07T12:25:07;2.70;;;0.60;;
42186;SDS011;27858;51.414;0.018;2023-04-07T12:27:34;1.02;;;0.50;;
42186;SDS011;27858;51.414;0.018;2023-04-07T12:30:08;4.03;;;0.80;;
42186;SDS011;27858;51.414;0.018;2023-04-07T12:32:35;0.82;;;0.60;;
42186;SDS011;27858;51.414;0.018;2023-04-07T12:35:04;1.75;;;0.38;;
42186;SDS011;27858;51.414;0.018;2023-04-07T12:37:31;4.03;;;1.42;;
42186;SDS011;27858;51.414;0.018;2023-04-07T12:39:58;1.75;;;0.68;;
42186;SDS011;27858;51.414;0.018;2023-04-07T12:42:26;1.67;;;0.50;;
42186;SDS011;27858;51.414;0.018;2023-04-07T12:44:53;1.02;;;0.47;;
42186;SDS011;27858;51.414;0.018;2023-04-07T12:47:20;2.15;;;0.70;;
42186;SDS011;27858;51.414;0.018;2023-04-07T12:49:47;3.13;;;0.68;;
42186;SDS011;27858;51.414;0.018;2023-04-07T12:52:15;2.40;;;0.60;;
42186;SDS011;27858;51.414;0.018;2023-04-07T12:54:42;1.02;;;0.52;;
42186;SDS011;27858;51.414;0.018;2023-04-07T12:57:10;1.17;;;0.35;;
42186;SDS011;27858;51.414;0.018;2023-04-07T12:59:37;1.20;;;0.73;;
42186;SDS011;27858;51.414;0.018;2023-04-07T13:02:04;0.52;;;0.45;;
42186;SDS011;27858;51.414;0.018;2023-04-07T13:04:31;0.82;;;0.80;;
42186;SDS011;27858;51.414;0.018;2023-04-07T13:06:58;0.80;;;0.50;;
42186;SDS011;27858;51.414;0.018;2023-04-07T13:09:26;3.42;;;0.88;;
42186;SDS011;27858;51.414;0.018;2023-04-07T13:11:52;0.85;;;0.40;;
42186;SDS011;27858;51.414;0.018;2023-04-07T13:14:19;3.65;;;0.60;;
42186;SDS011;27858;51.414;0.018;2023-04-07T13:16:46;3.63;;;0.93;;
42186;SDS011;27858;51.414;0.018;2023-04-07T13:19:13;3.42;;;0.70;;
42186;SDS011;27858;51.414;0.018;2023-04-07T13:21:40;1.75;;;0.30;;
42186;SDS011;27858;51.414;0.018;2023-04-07T13:24:12;0.85;;;0.35;;
42186;SDS011;27858;51.414;0.018;2023-04-07T13:26:39;5.40;;;0.85;;
42186;SDS011;27858;51.414;0.018;2023-04-07T13:29:06;1.55;;;0.50;;
42186;SDS011;27858;51.414;0.018;2023-04-07T13:31:33;0.32;;;0.30;;
42186;SDS011;27858;51.414;0.018;2023-04-07T13:34:00;0.80;;;0.50;;
42186;SDS011;27858;51.414;0.018;2023-04-07T13:36:27;2.85;;;0.90;;
42186;SDS011;27858;51.414;0.018;2023-04-07T13:38:53;0.57;;;0.40;;
42186;SDS011;27858;51.414;0.018;2023-04-07T13:41:22;1.67;;;0.63;;
42186;SDS011;27858;51.414;0.018;2023-04-07T13:43:48;0.88;;;0.40;;
42186;SDS011;27858;51.414;0.018;2023-04-07T13:46:16;6.57;;;0.57;;
42186;SDS011;27858;51.414;0.018;2023-04-07T13:48:46;1.08;;;0.50;;
42186;SDS011;27858;51.414;0.018;2023-04-07T13:51:14;3.17;;;0.95;;
42186;SDS011;27858;51.414;0.018;2023-04-07T13:53:41;0.88;;;0.65;;
42186;SDS011;27858;51.414;0.018;2023-04-07T13:56:08;0.75;;;0.43;;
42186;SDS011;27858;51.414;0.018;2023-04-07T13:58:35;4.88;;;0.70;;
42186;SDS011;27858;51.414;0.018;2023-04-07T14:01:02;1.08;;;0.57;;
42186;SDS011;27858;51.414;0.018;2023-04-07T14:03:29;1.27;;;0.88;;
42186;SDS011;27858;51.414;0.018;2023-04-07T14:05:57;1.45;;;0.63;;
42186;SDS011;27858;51.414;0.018;2023-04-07T14:08:26;0.55;;;0.35;;
42186;SDS011;27858;51.414;0.018;2023-04-07T14:10:53;2.88;;;0.70;;
42186;SDS011;27858;51.414;0.018;2023-04-07T14:13:20;1.45;;;0.50;;
42186;SDS011;27858;51.414;0.018;2023-04-07T14:15:47;2.00;;;0.70;;
42186;SDS011;27858;51.414;0.018;2023-04-07T14:18:14;5.25;;;0.80;;
42186;SDS011;27858;51.414;0.018;2023-04-07T14:20:42;1.98;;;0.60;;
42186;SDS011;27858;51.414;0.018;2023-04-07T14:23:09;0.50;;;0.32;;
42186;SDS011;27858;51.414;0.018;2023-04-07T14:25:36;0.90;;;0.60;;
42186;SDS011;27858;51.414;0.018;2023-04-07T14:28:03;0.98;;;0.70;;
42186;SDS011;27858;51.414;0.018;2023-04-07T14:30:30;1.80;;;0.63;;
42186;SDS011;27858;51.414;0.018;2023-04-07T14:32:56;1.52;;;0.60;;
42186;SDS011;27858;51.414;0.018;2023-04-07T14:35:23;2.00;;;0.50;;
42186;SDS011;27858;51.414;0.018;2023-04-07T14:37:50;2.78;;;0.70;;
42186;SDS011;27858;51.414;0.018;2023-04-07T14:40:17;4.32;;;0.70;;
42186;SDS011;27858;51.414;0.018;2023-04-07T14:42:46;1.35;;;0.60;;
42186;SDS011;27858;51.414;0.018;2023-04-07T14:45:14;2.05;;;0.65;;
42186;SDS011;27858;51.414;0.018;2023-04-07T14:47:43;1.50;;;0.73;;
42186;SDS011;27858;51.414;0.018;2023-04-07T14:50:10;1.70;;;0.63;;
42186;SDS011;27858;51.414;0.018;2023-04-07T14:52:37;3.90;;;0.80;;
42186;SDS011;27858;51.414;0.018;2023-04-07T14:55:04;1.95;;;0.80;;
42186;SDS011;27858;51.414;0.018;2023-04-07T14:57:31;1.67;;;0.85;;
42186;SDS011;27858;51.414;0.018;2023-04-07T14:59:58;2.10;;;1.02;;
42186;SDS011;27858;51.414;0.018;2023-04-07T15:02:25;3.28;;;0.60;;
42186;SDS011;27858;51.414;0.018;2023-04-07T15:04:54;1.88;;;0.98;;
42186;SDS011;27858;51.414;0.018;2023-04-07T15:07:21;8.15;;;0.52;;
42186;SDS011;27858;51.414;0.018;2023-04-07T15:09:48;2.38;;;0.70;;
42186;SDS011;27858;51.414;0.018;2023-04-07T15:12:14;1.20;;;0.40;;
42186;SDS011;27858;51.414;0.018;2023-04-07T15:14:42;4.00;;;0.57;;
42186;SDS011;27858;51.414;0.018;2023-04-07T15:17:10;0.90;;;0.63;;
42186;SDS011;27858;51.414;0.018;2023-04-07T15:19:37;0.80;;;0.60;;
42186;SDS011;27858;51.414;0.018;2023-04-07T15:22:04;3.08;;;0.93;;
42186;SDS011;27858;51.414;0.018;2023-04-07T15:24:31;4.90;;;0.80;;
42186;SDS011;27858;51.414;0.018;2023-04-07T15:26:57;2.60;;;0.82;;
42186;SDS011;27858;51.414;0.018;2023-04-07T15:29:24;2.40;;;0.60;;
42186;SDS011;27858;51.414;0.018;2023-04-07T15:31:51;1.77;;;1.02;;
42186;SDS011;27858;51.414;0.018;2023-04-07T15:34:17;0.63;;;0.63;;
42186;SDS011;27858;51.414;0.018;2023-04-07T15:36:44;1.42;;;0.57;;
42186;SDS011;27858;51.414;0.018;2023-04-07T15:39:11;2.05;;;0.70;;
42186;SDS011;27858;51.414;0.018;2023-04-07T15:41:38;2.40;;;0.98;;
42186;SDS011;27858;51.414;0.018;2023-04-07T15:44:04;1.02;;;0.80;;
42186;SDS011;27858;51.414;0.018;2023-04-07T15:46:31;3.45;;;1.15;;
42186;SDS011;27858;51.414;0.018;2023-04-07T15:48:58;3.35;;;0.77;;
42186;SDS011;27858;51.414;0.018;2023-04-07T15:51:25;1.20;;;0.60;;
42186;SDS011;27858;51.414;0.018;2023-04-07T15:53:53;7.57;;;1.23;;
42186;SDS011;27858;51.414;0.018;2023-04-07T15:56:20;3.05;;;0.75;;
42186;SDS011;27858;51.414;0.018;2023-04-07T15:58:49;1.65;;;0.70;;
42186;SDS011;27858;51.414;0.018;2023-04-07T16:01:16;2.97;;;1.50;;
42186;SDS011;27858;51.414;0.018;2023-04-07T16:03:43;1.05;;;0.60;;
42186;SDS011;27858;51.414;0.018;2023-04-07T16:06:10;2.03;;;0.75;;
42186;SDS011;27858;51.414;0.018;2023-04-07T16:08:37;0.93;;;0.70;;
42186;SDS011;27858;51.414;0.018;2023-04-07T16:11:04;1.92;;;0.70;;
42186;SDS011;27858;51.414;0.018;2023-04-07T16:13:30;0.75;;;0.60;;
42186;SDS011;27858;51.414;0.018;2023-04-07T16:15:57;2.05;;;0.63;;
42186;SDS011;27858;51.414;0.018;2023-04-07T16:18:24;1.10;;;0.90;;
42186;SDS011;27858;51.414;0.018;2023-04-07T16:20:51;1.00;;;0.60;;
42186;SDS011;27858;51.414;0.018;2023-04-07T16:23:17;4.97;;;1.08;;
42186;SDS011;27858;51.414;0.018;2023-04-07T16:25:44;1.00;;;0.70;;
42186;SDS011;27858;51.414;0.018;2023-04-07T16:28:11;3.90;;;0.90;;
42186;SDS011;27858;51.414;0.018;2023-04-07T16:30:37;0.75;;;0.52;;
42186;SDS011;27858;51.414;0.018;2023-04-07T16:33:05;0.68;;;0.45;;
42186;SDS011;27858;51.414;0.018;2023-04-07T16:35:32;1.17;;;0.70;;
42186;SDS011;27858;51.414;0.018;2023-04-07T16:37:59;0.50;;;0.38;;
42186;SDS011;27858;51.414;0.018;2023-04-07T16:40:31;2.70;;;0.47;;
42186;SDS011;27858;51.414;0.018;2023-04-07T16:42:58;1.10;;;0.60;;
42186;SDS011;27858;51.414;0.018;2023-04-07T16:45:25;6.55;;;0.73;;
42186;SDS011;27858;51.414;0.018;2023-04-07T16:47:51;1.25;;;0.80;;
42186;SDS011;27858;51.414;0.018;2023-04-07T16:50:18;1.88;;;0.60;;
42186;SDS011;27858;51.414;0.018;2023-04-07T16:52:45;2.92;;;0.70;;
42186;SDS011;27858;51.414;0.018;2023-04-07T16:55:13;1.83;;;0.80;;
42186;SDS011;27858;51.414;0.018;2023-04-07T16:57:39;0.90;;;0.73;;
42186;SDS011;27858;51.414;0.018;2023-04-07T17:00:06;2.72;;;0.70;;
42186;SDS011;27858;51.414;0.018;2023-04-07T17:02:33;2.75;;;0.93;;
42186;SDS011;27858;51.414;0.018;2023-04-07T17:05:00;1.92;;;0.98;;
42186;SDS011;27858;51.414;0.018;2023-04-07T17:07:27;2.10;;;0.65;;
42186;SDS011;27858;51.414;0.018;2023-04-07T17:09:54;1.48;;;0.82;;
42186;SDS011;27858;51.414;0.018;2023-04-07T17:12:21;3.00;;;0.85;;
42186;SDS011;27858;51.414;0.018;2023-04-07T17:14:48;1.40;;;0.68;;
42186;SDS011;27858;51.414;0.018;2023-04-07T17:17:14;2.00;;;1.05;;
42186;SDS011;27858;51.414;0.018;2023-04-07T17:19:41;1.67;;;0.60;;
42186;SDS011;27858;51.414;0.018;2023-04-07T17:22:08;1.23;;;0.80;;
42186;SDS011;27858;51.414;0.018;2023-04-07T17:24:35;2.53;;;0.90;;
42186;SDS011;27858;51.414;0.018;2023-04-07T17:27:01;0.57;;;0.57;;
42186;SDS011;27858;51.414;0.018;2023-04-07T17:29:28;1.38;;;0.75;;
42186;SDS011;27858;51.414;0.018;2023-04-07T17:31:56;2.00;;;0.75;;
42186;SDS011;27858;51.414;0.018;2023-04-07T17:34:23;1.38;;;0.57;;
42186;SDS011;27858;51.414;0.018;2023-04-07T17:36:50;2.22;;;0.88;;
42186;SDS011;27858;51.414;0.018;2023-04-07T17:39:17;2.10;;;0.95;;
42186;SDS011;27858;51.414;0.018;2023-04-07T17:41:43;4.30;;;0.80;;
42186;SDS011;27858;51.414;0.018;2023-04-07T17:44:11;4.32;;;1.15;;
42186;SDS011;27858;51.414;0.018;2023-04-07T17:46:39;3.20;;;0.70;;
42186;SDS011;27858;51.414;0.018;2023-04-07T17:49:06;3.35;;;0.90;;
42186;SDS011;27858;51.414;0.018;2023-04-07T17:51:33;1.52;;;0.85;;
42186;SDS011;27858;51.414;0.018;2023-04-07T17:53:59;8.98;;;3.72;;
42186;SDS011;27858;51.414;0.018;2023-04-07T17:56:26;4.43;;;1.02;;
42186;SDS011;27858;51.414;0.018;2023-04-07T17:58:53;2.10;;;1.17;;
42186;SDS011;27858;51.414;0.018;2023-04-07T18:01:20;3.00;;;0.70;;
42186;SDS011;27858;51.414;0.018;2023-04-07T18:03:47;1.50;;;0.85;;
42186;SDS011;27858;51.414;0.018;2023-04-07T18:06:15;1.85;;;0.75;;
42186;SDS011;27858;51.414;0.018;2023-04-07T18:08:45;3.53;;;1.00;;
42186;SDS011;27858;51.414;0.018;2023-04-07T18:11:13;0.70;;;0.60;;
42186;SDS011;27858;51.414;0.018;2023-04-07T18:13:40;1.95;;;1.10;;
42186;SDS011;27858;51.414;0.018;2023-04-07T18:16:07;1.42;;;0.82;;
42186;SDS011;27858;51.414;0.018;2023-04-07T18:18:35;1.33;;;0.50;;
42186;SDS011;27858;51.414;0.018;2023-04-07T18:21:03;0.80;;;0.80;;
42186;SDS011;27858;51.414;0.018;2023-04-07T18:23:31;1.65;;;0.70;;
42186;SDS011;27858;51.414;0.018;2023-04-07T18:26:00;1.40;;;0.80;;
42186;SDS011;27858;51.414;0.018;2023-04-07T18:28:28;3.92;;;0.65;;
42186;SDS011;27858;51.414;0.018;2023-04-07T18:30:59;0.90;;;0.85;;
42186;SDS011;27858;51.414;0.018;2023-04-07T18:33:32;5.30;;;1.00;;
42186;SDS011;27858;51.414;0.018;2023-04-07T18:36:01;2.13;;;0.80;;
42186;SDS011;27858;51.414;0.018;2023-04-07T18:38:29;1.15;;;0.82;;
42186;SDS011;27858;51.414;0.018;2023-04-07T18:40:55;1.48;;;0.68;;
42186;SDS011;27858;51.414;0.018;2023-04-07T18:43:22;9.63;;;1.27;;
42186;SDS011;27858;51.414;0.018;2023-04-07T18:45:49;2.83;;;1.13;;
42186;SDS011;27858;51.414;0.018;2023-04-07T18:48:18;1.50;;;0.82;;
42186;SDS011;27858;51.414;0.018;2023-04-07T18:50:51;2.20;;;0.88;;
42186;SDS011;27858;51.414;0.018;2023-04-07T18:53:19;2.08;;;1.13;;
42186;SDS011;27858;51.414;0.018;2023-04-07T18:55:46;1.75;;;1.20;;
42186;SDS011;27858;51.414;0.018;2023-04-07T18:58:13;2.45;;;0.70;;
42186;SDS011;27858;51.414;0.018;2023-04-07T19:00:41;1.02;;;0.80;;
42186;SDS011;27858;51.414;0.018;2023-04-07T19:03:09;1.38;;;0.60;;
42186;SDS011;27858;51.414;0.018;2023-04-07T19:05:37;1.35;;;0.65;;